sensor_id;sensor_type;location;lat;lon;timestamp;pressure;altitude;pressure_sealevel;temperature;humidity
16664;BME280;8445;51.270;9.434;2023-07-30T00:02:00;98816.53;;;16.89;71.23
16664;BME280;8445;51.270;9.434;2023-07-30T00:04:26;98816.47;;;16.83;71.23
16664;BME280;8445;51.270;9.434;2023-07-30T00:06:52;98823.13;;;16.81;71.27
16664;BME280;8445;51.270;9.434;2023-07-30T00:09:17;98823.31;;;16.74;71.65
16664;BME280;8445;51.270;9.434;2023-07-30T00:11:43;98828.38;;;16.71;71.84
16664;BME280;8445;51.270;9.434;2023-07-30T00:14:09;98827.19;;;16.67;71.89
16664;BME280;8445;51.270;9.434;2023-07-30T00:16:35;98831.19;;;16.64;71.98
16664;BME280;8445;51.270;9.434;2023-07-30T00:19:01;98831.44;;;16.63;72.20
16664;BME280;8445;51.270;9.434;2023-07-30T00:21:27;98831.38;;;16.58;72.35
16664;BME280;8445;51.270;9.434;2023-07-30T00:23:53;98831.63;;;16.56;72.20
16664;BME280;8445;51.270;9.434;2023-07-30T00:26:19;98839.91;;;16.54;72.73
16664;BME280;8445;51.270;9.434;2023-07-30T00:28:45;98838.78;;;16.50;72.83
16664;BME280;8445;51.270;9.434;2023-07-30T00:31:11;98836.34;;;16.49;72.86
16664;BME280;8445;51.270;9.434;2023-07-30T00:33:37;98833.41;;;16.50;72.57
16664;BME280;8445;51.270;9.434;2023-07-30T00:36:03;98838.28;;;16.53;72.80
16664;BME280;8445;51.270;9.434;2023-07-30T00:38:29;98835.13;;;16.57;72.79
16664;BME280;8445;51.270;9.434;2023-07-30T00:40:55;98832.44;;;16.57;72.60
16664;BME280;8445;51.270;9.434;2023-07-30T00:43:22;98834.53;;;16.54;72.53
16664;BME280;8445;51.270;9.434;2023-07-30T00:45:49;98839.91;;;16.54;72.75
16664;BME280;8445;51.270;9.434;2023-07-30T00:48:15;98840.41;;;16.51;72.62
16664;BME280;8445;51.270;9.434;2023-07-30T00:50:42;98841.47;;;16.50;72.54
16664;BME280;8445;51.270;9.434;2023-07-30T00:53:11;98833.91;;;16.47;72.77
16664;BME280;8445;51.270;9.434;2023-07-30T00:55:40;98844.91;;;16.46;72.77
16664;BME280;8445;51.270;9.434;2023-07-30T00:58:06;98842.94;;;16.41;72.90
16664;BME280;8445;51.270;9.434;2023-07-30T01:00:33;98843.94;;;16.35;73.21
16664;BME280;8445;51.270;9.434;2023-07-30T01:02:59;98837.31;;;16.26;72.97
16664;BME280;8445;51.270;9.434;2023-07-30T01:05:26;98843.66;;;16.20;73.38
16664;BME280;8445;51.270;9.434;2023-07-30T01:07:52;98844.63;;;16.14;73.42
16664;BME280;8445;51.270;9.434;2023-07-30T01:10:18;98839.09;;;16.04;73.72
16664;BME280;8445;51.270;9.434;2023-07-30T01:12:45;98847.28;;;15.97;73.90
16664;BME280;8445;51.270;9.434;2023-07-30T01:15:13;98845.59;;;15.91;73.71
16664;BME280;8445;51.270;9.434;2023-07-30T01:17:39;98851.09;;;15.84;74.05
16664;BME280;8445;51.270;9.434;2023-07-30T01:20:06;98849.94;;;15.80;74.03
16664;BME280;8445;51.270;9.434;2023-07-30T01:22:32;98844.81;;;15.79;73.84
16664;BME280;8445;51.270;9.434;2023-07-30T01:24:58;98844.00;;;15.78;74.12
16664;BME280;8445;51.270;9.434;2023-07-30T01:27:39;98845.63;;;15.79;74.59
16664;BME280;8445;51.270;9.434;2023-07-30T01:30:18;98845.38;;;15.81;74.25
16664;BME280;8445;51.270;9.434;2023-07-30T01:32:49;98851.00;;;15.79;74.55
16664;BME280;8445;51.270;9.434;2023-07-30T01:35:16;98852.38;;;15.82;74.37
16664;BME280;8445;51.270;9.434;2023-07-30T01:37:44;98858.56;;;15.82;74.60
16664;BME280;8445;51.270;9.434;2023-07-30T01:40:11;98862.63;;;15.85;74.74
16664;BME280;8445;51.270;9.434;2023-07-30T01:42:38;98872.91;;;15.88;74.97
16664;BME280;8445;51.270;9.434;2023-07-30T01:45:05;98881.31;;;15.91;75.05
16664;BME280;8445;51.270;9.434;2023-07-30T01:47:31;98880.81;;;15.94;74.90
16664;BME280;8445;51.270;9.434;2023-07-30T01:49:57;98887.75;;;15.90;75.06
16664;BME280;8445;51.270;9.434;2023-07-30T01:52:25;98884.47;;;15.88;75.29
16664;BME280;8445;51.270;9.434;2023-07-30T01:54:50;98892.75;;;15.87;75.30
16664;BME280;8445;51.270;9.434;2023-07-30T01:57:16;98880.53;;;15.79;75.41
16664;BME280;8445;51.270;9.434;2023-07-30T01:59:42;98895.47;;;15.75;75.37
16664;BME280;8445;51.270;9.434;2023-07-30T02:02:08;98896.44;;;15.69;75.60
16664;BME280;8445;51.270;9.434;2023-07-30T02:04:34;98897.16;;;15.64;75.89
16664;BME280;8445;51.270;9.434;2023-07-30T02:07:00;98889.19;;;15.58;75.81
16664;BME280;8445;51.270;9.434;2023-07-30T02:09:26;98897.16;;;15.53;75.81
16664;BME280;8445;51.270;9.434;2023-07-30T02:11:52;98895.41;;;15.47;76.18
16664;BME280;8445;51.270;9.434;2023-07-30T02:14:18;98894.75;;;15.40;76.25
16664;BME280;8445;51.270;9.434;2023-07-30T02:16:44;98899.97;;;15.34;76.72
16664;BME280;8445;51.270;9.434;2023-07-30T02:19:11;98894.75;;;15.28;76.82
16664;BME280;8445;51.270;9.434;2023-07-30T02:21:36;98899.66;;;15.19;76.85
16664;BME280;8445;51.270;9.434;2023-07-30T02:24:06;98900.94;;;15.17;77.13
16664;BME280;8445;51.270;9.434;2023-07-30T02:26:36;98905.41;;;15.11;76.87
16664;BME280;8445;51.270;9.434;2023-07-30T02:29:02;98900.94;;;15.05;77.32
16664;BME280;8445;51.270;9.434;2023-07-30T02:31:28;98903.53;;;15.00;76.75
16664;BME280;8445;51.270;9.434;2023-07-30T02:33:54;98905.25;;;14.94;77.18
16664;BME280;8445;51.270;9.434;2023-07-30T02:36:20;98905.38;;;14.88;77.06
16664;BME280;8445;51.270;9.434;2023-07-30T02:38:46;98900.50;;;14.85;77.63
16664;BME280;8445;51.270;9.434;2023-07-30T02:41:12;98904.09;;;14.78;77.35
16664;BME280;8445;51.270;9.434;2023-07-30T02:43:40;98905.03;;;14.72;77.46
16664;BME280;8445;51.270;9.434;2023-07-30T02:46:06;98906.09;;;14.71;77.81
16664;BME280;8445;51.270;9.434;2023-07-30T02:48:32;98905.72;;;14.68;78.09
16664;BME280;8445;51.270;9.434;2023-07-30T02:50:58;98913.53;;;14.69;77.90
16664;BME280;8445;51.270;9.434;2023-07-30T02:53:24;98910.97;;;14.74;78.11
16664;BME280;8445;51.270;9.434;2023-07-30T02:55:50;98918.69;;;14.83;77.87
16664;BME280;8445;51.270;9.434;2023-07-30T02:58:16;98926.03;;;14.87;77.96
16664;BME280;8445;51.270;9.434;2023-07-30T03:00:42;98914.81;;;14.90;77.93
16664;BME280;8445;51.270;9.434;2023-07-30T03:03:08;98921.59;;;14.93;78.07
16664;BME280;8445;51.270;9.434;2023-07-30T03:05:34;98922.97;;;14.95;77.99
16664;BME280;8445;51.270;9.434;2023-07-30T03:08:00;98923.81;;;14.96;77.89
16664;BME280;8445;51.270;9.434;2023-07-30T03:10:26;98933.13;;;14.93;78.09
16664;BME280;8445;51.270;9.434;2023-07-30T03:12:51;98924.25;;;14.93;78.37
16664;BME280;8445;51.270;9.434;2023-07-30T03:15:17;98945.47;;;14.94;78.21
16664;BME280;8445;51.270;9.434;2023-07-30T03:17:43;98941.97;;;14.94;78.22
16664;BME280;8445;51.270;9.434;2023-07-30T03:20:09;98933.69;;;14.95;78.62
16664;BME280;8445;51.270;9.434;2023-07-30T03:22:35;98943.19;;;14.98;78.79
16664;BME280;8445;51.270;9.434;2023-07-30T03:25:01;98947.50;;;14.99;78.48
16664;BME280;8445;51.270;9.434;2023-07-30T03:27:27;98945.84;;;14.98;78.60
16664;BME280;8445;51.270;9.434;2023-07-30T03:29:53;98950.16;;;14.99;78.66
16664;BME280;8445;51.270;9.434;2023-07-30T03:32:19;98945.84;;;14.98;79.08
16664;BME280;8445;51.270;9.434;2023-07-30T03:34:45;98950.97;;;14.99;79.21
16664;BME280;8445;51.270;9.434;2023-07-30T03:37:11;98953.91;;;14.98;78.88
16664;BME280;8445;51.270;9.434;2023-07-30T03:39:37;98955.78;;;14.97;79.11
16664;BME280;8445;51.270;9.434;2023-07-30T03:42:03;98960.91;;;14.99;78.80
16664;BME280;8445;51.270;9.434;2023-07-30T03:44:29;98957.16;;;15.00;78.94
16664;BME280;8445;51.270;9.434;2023-07-30T03:46:55;98963.34;;;15.00;79.06
16664;BME280;8445;51.270;9.434;2023-07-30T03:49:22;98958.44;;;14.97;79.10
16664;BME280;8445;51.270;9.434;2023-07-30T03:51:48;98954.94;;;14.97;79.28
16664;BME280;8445;51.270;9.434;2023-07-30T03:54:14;98945.03;;;14.97;79.14
16664;BME280;8445;51.270;9.434;2023-07-30T03:56:40;98945.63;;;14.99;79.05
16664;BME280;8445;51.270;9.434;2023-07-30T03:59:07;98951.31;;;15.03;79.10
16664;BME280;8445;51.270;9.434;2023-07-30T04:01:33;98958.66;;;15.07;79.10
16664;BME280;8445;51.270;9.434;2023-07-30T04:03:59;98956.59;;;15.10;78.92
16664;BME280;8445;51.270;9.434;2023-07-30T04:06:25;98947.03;;;15.14;79.10
16664;BME280;8445;51.270;9.434;2023-07-30T04:08:51;98948.41;;;15.16;78.86
16664;BME280;8445;51.270;9.434;2023-07-30T04:11:17;98949.56;;;15.20;78.88
16664;BME280;8445;51.270;9.434;2023-07-30T04:13:43;98951.91;;;15.28;78.66
16664;BME280;8445;51.270;9.434;2023-07-30T04:16:09;98951.91;;;15.40;78.59
16664;BME280;8445;51.270;9.434;2023-07-30T04:18:35;98959.59;;;15.48;78.72
16664;BME280;8445;51.270;9.434;2023-07-30T04:21:00;98962.72;;;15.57;78.53
16664;BME280;8445;51.270;9.434;2023-07-30T04:23:27;98965.69;;;15.67;78.84
16664;BME280;8445;51.270;9.434;2023-07-30T04:25:53;98974.16;;;15.76;78.95
16664;BME280;8445;51.270;9.434;2023-07-30T04:28:19;98970.22;;;15.78;79.29
16664;BME280;8445;51.270;9.434;2023-07-30T04:30:45;98978.59;;;15.82;78.95
16664;BME280;8445;51.270;9.434;2023-07-30T04:33:13;98971.44;;;15.87;79.16
16664;BME280;8445;51.270;9.434;2023-07-30T04:35:40;98979.72;;;15.98;78.87
16664;BME280;8445;51.270;9.434;2023-07-30T04:38:07;98976.84;;;16.16;78.56
16664;BME280;8445;51.270;9.434;2023-07-30T04:40:33;98980.78;;;16.25;78.48
16664;BME280;8445;51.270;9.434;2023-07-30T04:42:59;98980.78;;;16.25;78.53
16664;BME280;8445;51.270;9.434;2023-07-30T04:45:25;98972.16;;;16.23;78.82
16664;BME280;8445;51.270;9.434;2023-07-30T04:47:51;98982.44;;;16.26;78.74
16664;BME280;8445;51.270;9.434;2023-07-30T04:50:18;98982.44;;;16.26;78.57
16664;BME280;8445;51.270;9.434;2023-07-30T04:52:44;98976.72;;;16.22;78.50
16664;BME280;8445;51.270;9.434;2023-07-30T04:55:10;98975.91;;;16.22;78.50
16664;BME280;8445;51.270;9.434;2023-07-30T04:57:36;98974.28;;;16.21;78.61
16664;BME280;8445;51.270;9.434;2023-07-30T05:00:02;98973.78;;;16.24;78.62
16664;BME280;8445;51.270;9.434;2023-07-30T05:02:28;98978.56;;;16.34;78.54
16664;BME280;8445;51.270;9.434;2023-07-30T05:04:54;98972.88;;;16.47;78.51
16664;BME280;8445;51.270;9.434;2023-07-30T05:07:20;98975.50;;;16.59;79.51
16664;BME280;8445;51.270;9.434;2023-07-30T05:09:46;98968.34;;;16.64;79.32
16664;BME280;8445;51.270;9.434;2023-07-30T05:12:11;98973.47;;;16.66;78.98
16664;BME280;8445;51.270;9.434;2023-07-30T05:14:37;98967.63;;;16.69;78.87
16664;BME280;8445;51.270;9.434;2023-07-30T05:17:03;98973.13;;;16.74;78.65
16664;BME280;8445;51.270;9.434;2023-07-30T05:19:29;98964.00;;;16.75;78.48
16664;BME280;8445;51.270;9.434;2023-07-30T05:21:55;98976.44;;;16.81;78.26
16664;BME280;8445;51.270;9.434;2023-07-30T05:24:21;98974.34;;;16.83;78.20
16664;BME280;8445;51.270;9.434;2023-07-30T05:26:47;98965.28;;;16.89;77.89
16664;BME280;8445;51.270;9.434;2023-07-30T05:29:13;98966.44;;;16.93;77.82
16664;BME280;8445;51.270;9.434;2023-07-30T05:31:39;98966.03;;;17.01;77.72
16664;BME280;8445;51.270;9.434;2023-07-30T05:34:05;98962.34;;;17.07;77.51
16664;BME280;8445;51.270;9.434;2023-07-30T05:36:30;98967.56;;;17.14;77.43
16664;BME280;8445;51.270;9.434;2023-07-30T05:38:56;98958.75;;;17.19;77.37
16664;BME280;8445;51.270;9.434;2023-07-30T05:41:22;98971.56;;;17.28;77.26
16664;BME280;8445;51.270;9.434;2023-07-30T05:43:48;98963.28;;;17.35;77.13
16664;BME280;8445;51.270;9.434;2023-07-30T05:46:14;98958.56;;;17.42;77.11
16664;BME280;8445;51.270;9.434;2023-07-30T05:48:40;98961.06;;;17.49;76.92
16664;BME280;8445;51.270;9.434;2023-07-30T05:51:06;98960.91;;;17.55;76.76
16664;BME280;8445;51.270;9.434;2023-07-30T05:53:32;98955.56;;;17.60;76.60
16664;BME280;8445;51.270;9.434;2023-07-30T05:55:58;98951.88;;;17.66;76.59
16664;BME280;8445;51.270;9.434;2023-07-30T05:58:24;98959.00;;;17.72;76.29
16664;BME280;8445;51.270;9.434;2023-07-30T06:00:50;98951.81;;;17.78;76.26
16664;BME280;8445;51.270;9.434;2023-07-30T06:03:16;98952.16;;;17.87;76.15
16664;BME280;8445;51.270;9.434;2023-07-30T06:05:42;98950.63;;;17.91;75.78
16664;BME280;8445;51.270;9.434;2023-07-30T06:08:09;98956.34;;;17.99;75.54
16664;BME280;8445;51.270;9.434;2023-07-30T06:10:37;98961.31;;;18.08;75.51
16664;BME280;8445;51.270;9.434;2023-07-30T06:13:04;98955.72;;;18.14;75.35
16664;BME280;8445;51.270;9.434;2023-07-30T06:15:32;98953.13;;;18.24;75.10
16664;BME280;8445;51.270;9.434;2023-07-30T06:17:58;98956.94;;;18.28;74.72
16664;BME280;8445;51.270;9.434;2023-07-30T06:20:24;98968.94;;;18.43;74.32
16664;BME280;8445;51.270;9.434;2023-07-30T06:22:50;98964.19;;;18.50;73.88
16664;BME280;8445;51.270;9.434;2023-07-30T06:25:16;98964.28;;;18.60;73.55
16664;BME280;8445;51.270;9.434;2023-07-30T06:27:41;98957.63;;;18.68;73.35
16664;BME280;8445;51.270;9.434;2023-07-30T06:30:08;98958.53;;;18.78;73.04
16664;BME280;8445;51.270;9.434;2023-07-30T06:32:34;98954.59;;;18.91;72.59
16664;BME280;8445;51.270;9.434;2023-07-30T06:35:00;98960.88;;;19.02;72.46
16664;BME280;8445;51.270;9.434;2023-07-30T06:37:26;98968.03;;;19.18;72.29
16664;BME280;8445;51.270;9.434;2023-07-30T06:39:51;98965.94;;;19.30;71.85
16664;BME280;8445;51.270;9.434;2023-07-30T06:42:17;98964.41;;;19.44;71.26
16664;BME280;8445;51.270;9.434;2023-07-30T06:44:43;98969.97;;;19.65;71.24
16664;BME280;8445;51.270;9.434;2023-07-30T06:47:09;98975.47;;;19.85;70.65
16664;BME280;8445;51.270;9.434;2023-07-30T06:49:35;98978.00;;;20.07;70.16
16664;BME280;8445;51.270;9.434;2023-07-30T06:54:47;98979.97;;;21.74;66.63
16664;BME280;8445;51.270;9.434;2023-07-30T06:57:13;98985.19;;;22.35;65.15
16664;BME280;8445;51.270;9.434;2023-07-30T06:59:39;98993.47;;;22.59;65.28
16664;BME280;8445;51.270;9.434;2023-07-30T07:02:05;98986.03;;;22.70;65.15
16664;BME280;8445;51.270;9.434;2023-07-30T07:04:31;99005.03;;;22.75;64.72
16664;BME280;8445;51.270;9.434;2023-07-30T07:06:57;98999.81;;;23.18;63.81
16664;BME280;8445;51.270;9.434;2023-07-30T07:09:23;98999.91;;;23.37;63.53
16664;BME280;8445;51.270;9.434;2023-07-30T07:11:49;98997.91;;;23.76;62.63
16664;BME280;8445;51.270;9.434;2023-07-30T07:14:14;98997.72;;;24.15;61.66
16664;BME280;8445;51.270;9.434;2023-07-30T07:16:40;98974.75;;;24.64;60.54
16664;BME280;8445;51.270;9.434;2023-07-30T07:19:06;98976.84;;;25.05;59.73
16664;BME280;8445;51.270;9.434;2023-07-30T07:21:32;98975.34;;;25.45;59.24
16664;BME280;8445;51.270;9.434;2023-07-30T07:23:58;98986.00;;;25.74;58.13
16664;BME280;8445;51.270;9.434;2023-07-30T07:26:24;98984.56;;;26.18;56.22
16664;BME280;8445;51.270;9.434;2023-07-30T07:28:50;98980.19;;;26.17;56.88
16664;BME280;8445;51.270;9.434;2023-07-30T07:31:16;98970.84;;;25.96;57.46
16664;BME280;8445;51.270;9.434;2023-07-30T07:33:45;98968.31;;;25.85;57.24
16664;BME280;8445;51.270;9.434;2023-07-30T07:36:11;98960.22;;;25.94;57.49
16664;BME280;8445;51.270;9.434;2023-07-30T07:38:37;98965.94;;;26.34;56.26
16664;BME280;8445;51.270;9.434;2023-07-30T07:41:03;98962.88;;;26.49;56.14
16664;BME280;8445;51.270;9.434;2023-07-30T07:43:29;98972.19;;;26.34;56.04
16664;BME280;8445;51.270;9.434;2023-07-30T07:45:55;98978.69;;;26.38;55.42
16664;BME280;8445;51.270;9.434;2023-07-30T07:48:20;98982.59;;;26.60;55.01
16664;BME280;8445;51.270;9.434;2023-07-30T07:50:46;98983.41;;;26.83;54.28
16664;BME280;8445;51.270;9.434;2023-07-30T07:53:12;98986.47;;;27.03;53.57
16664;BME280;8445;51.270;9.434;2023-07-30T07:55:40;98989.00;;;27.22;53.12
16664;BME280;8445;51.270;9.434;2023-07-30T07:58:06;98992.19;;;27.47;52.72
16664;BME280;8445;51.270;9.434;2023-07-30T08:00:32;99000.16;;;27.03;53.18
16664;BME280;8445;51.270;9.434;2023-07-30T08:02:58;99005.00;;;26.70;53.61
16664;BME280;8445;51.270;9.434;2023-07-30T08:05:24;99002.25;;;27.60;51.62
16664;BME280;8445;51.270;9.434;2023-07-30T08:07:50;98999.22;;;28.58;49.31
16664;BME280;8445;51.270;9.434;2023-07-30T08:10:16;98994.72;;;28.88;49.48
16664;BME280;8445;51.270;9.434;2023-07-30T08:12:42;98998.09;;;28.85;49.11
16664;BME280;8445;51.270;9.434;2023-07-30T08:15:09;99002.75;;;28.67;49.31
16664;BME280;8445;51.270;9.434;2023-07-30T08:17:34;99002.19;;;28.22;50.18
16664;BME280;8445;51.270;9.434;2023-07-30T08:20:00;98995.34;;;27.62;50.87
16664;BME280;8445;51.270;9.434;2023-07-30T08:22:26;98999.56;;;26.93;51.71
16664;BME280;8445;51.270;9.434;2023-07-30T08:24:52;99003.47;;;26.78;51.21
16664;BME280;8445;51.270;9.434;2023-07-30T08:27:18;98999.69;;;26.51;51.69
16664;BME280;8445;51.270;9.434;2023-07-30T08:29:44;98997.91;;;26.33;52.08
16664;BME280;8445;51.270;9.434;2023-07-30T08:32:10;98995.47;;;25.77;52.47
16664;BME280;8445;51.270;9.434;2023-07-30T08:34:36;98996.44;;;25.40;52.70
16664;BME280;8445;51.270;9.434;2023-07-30T08:37:02;98995.72;;;25.48;52.19
16664;BME280;8445;51.270;9.434;2023-07-30T08:39:28;99001.94;;;25.21;52.34
16664;BME280;8445;51.270;9.434;2023-07-30T08:41:54;98994.91;;;24.63;53.12
16664;BME280;8445;51.270;9.434;2023-07-30T08:44:20;98991.53;;;24.34;53.42
16664;BME280;8445;51.270;9.434;2023-07-30T08:46:46;98987.94;;;24.14;53.30
16664;BME280;8445;51.270;9.434;2023-07-30T08:49:12;98991.63;;;23.81;53.86
16664;BME280;8445;51.270;9.434;2023-07-30T08:51:40;98999.31;;;23.45;54.54
16664;BME280;8445;51.270;9.434;2023-07-30T08:54:10;98992.53;;;23.13;54.79
16664;BME280;8445;51.270;9.434;2023-07-30T08:56:38;98997.06;;;22.89;55.10
16664;BME280;8445;51.270;9.434;2023-07-30T08:59:05;99001.50;;;22.69;55.22
16664;BME280;8445;51.270;9.434;2023-07-30T09:01:39;99009.56;;;22.46;55.92
16664;BME280;8445;51.270;9.434;2023-07-30T09:04:06;99005.03;;;22.31;55.96
16664;BME280;8445;51.270;9.434;2023-07-30T09:06:33;99005.31;;;22.24;56.11
16664;BME280;8445;51.270;9.434;2023-07-30T09:08:58;99016.41;;;22.28;55.83
16664;BME280;8445;51.270;9.434;2023-07-30T09:11:27;99023.16;;;22.35;55.72
16664;BME280;8445;51.270;9.434;2023-07-30T09:13:54;99022.22;;;22.60;55.40
16664;BME280;8445;51.270;9.434;2023-07-30T09:16:25;99025.09;;;22.84;55.07
16664;BME280;8445;51.270;9.434;2023-07-30T09:18:52;99028.00;;;22.93;55.16
16664;BME280;8445;51.270;9.434;2023-07-30T09:21:20;99034.56;;;22.87;55.49
16664;BME280;8445;51.270;9.434;2023-07-30T09:23:54;99029.94;;;22.87;55.70
16664;BME280;8445;51.270;9.434;2023-07-30T09:26:20;99036.97;;;22.93;55.81
16664;BME280;8445;51.270;9.434;2023-07-30T09:28:47;99036.47;;;22.81;56.20
16664;BME280;8445;51.270;9.434;2023-07-30T09:31:13;99037.09;;;22.68;56.74
16664;BME280;8445;51.270;9.434;2023-07-30T09:33:42;99048.81;;;22.63;57.09
16664;BME280;8445;51.270;9.434;2023-07-30T09:36:08;99046.38;;;22.57;57.34
16664;BME280;8445;51.270;9.434;2023-07-30T09:38:44;99036.28;;;22.67;56.99
16664;BME280;8445;51.270;9.434;2023-07-30T09:41:12;99044.94;;;22.75;56.92
16664;BME280;8445;51.270;9.434;2023-07-30T09:43:38;99042.53;;;22.68;57.05
16664;BME280;8445;51.270;9.434;2023-07-30T09:46:08;99044.00;;;22.50;57.17
16664;BME280;8445;51.270;9.434;2023-07-30T09:48:34;99044.91;;;22.25;57.57
16664;BME280;8445;51.270;9.434;2023-07-30T09:51:03;99044.72;;;22.06;57.86
16664;BME280;8445;51.270;9.434;2023-07-30T09:53:33;99049.03;;;22.02;58.07
16664;BME280;8445;51.270;9.434;2023-07-30T09:56:04;99052.59;;;21.98;58.29
16664;BME280;8445;51.270;9.434;2023-07-30T09:58:31;99056.97;;;21.83;58.51
16664;BME280;8445;51.270;9.434;2023-07-30T10:01:02;99046.94;;;21.79;58.72
16664;BME280;8445;51.270;9.434;2023-07-30T10:03:31;99044.78;;;21.71;59.23
16664;BME280;8445;51.270;9.434;2023-07-30T10:06:08;99051.31;;;21.60;59.74
16664;BME280;8445;51.270;9.434;2023-07-30T10:08:39;99053.19;;;21.59;59.36
16664;BME280;8445;51.270;9.434;2023-07-30T10:11:08;99057.03;;;21.53;59.49
16664;BME280;8445;51.270;9.434;2023-07-30T10:13:37;99059.72;;;21.53;59.66
16664;BME280;8445;51.270;9.434;2023-07-30T10:16:10;99060.25;;;21.60;59.49
16664;BME280;8445;51.270;9.434;2023-07-30T10:18:42;99058.63;;;21.69;59.49
16664;BME280;8445;51.270;9.434;2023-07-30T10:21:10;99055.66;;;21.66;59.72
16664;BME280;8445;51.270;9.434;2023-07-30T10:24:01;99059.16;;;21.66;59.79
16664;BME280;8445;51.270;9.434;2023-07-30T10:26:33;99065.41;;;21.67;59.61
16664;BME280;8445;51.270;9.434;2023-07-30T10:29:19;99067.84;;;21.58;60.17
16664;BME280;8445;51.270;9.434;2023-07-30T10:31:57;99067.84;;;21.53;60.48
16664;BME280;8445;51.270;9.434;2023-07-30T10:34:43;99075.19;;;21.52;60.20
16664;BME280;8445;51.270;9.434;2023-07-30T10:37:09;99072.44;;;21.58;59.89
16664;BME280;8445;51.270;9.434;2023-07-30T10:39:35;99069.47;;;21.59;59.67
16664;BME280;8445;51.270;9.434;2023-07-30T10:42:01;99078.69;;;21.58;59.62
16664;BME280;8445;51.270;9.434;2023-07-30T10:44:31;99086.28;;;21.56;59.86
16664;BME280;8445;51.270;9.434;2023-07-30T10:46:59;99082.19;;;21.48;59.89
16664;BME280;8445;51.270;9.434;2023-07-30T10:49:26;99095.75;;;21.48;59.43
16664;BME280;8445;51.270;9.434;2023-07-30T10:51:57;99088.47;;;21.39;59.32
16664;BME280;8445;51.270;9.434;2023-07-30T10:54:23;99093.34;;;21.27;59.49
16664;BME280;8445;51.270;9.434;2023-07-30T10:56:49;99096.53;;;21.13;59.68
16664;BME280;8445;51.270;9.434;2023-07-30T10:59:19;99095.13;;;20.95;60.08
16664;BME280;8445;51.270;9.434;2023-07-30T11:01:45;99099.16;;;20.73;60.40
16664;BME280;8445;51.270;9.434;2023-07-30T11:04:19;99099.88;;;20.48;60.88
16664;BME280;8445;51.270;9.434;2023-07-30T11:06:49;99105.75;;;20.40;61.02
16664;BME280;8445;51.270;9.434;2023-07-30T11:09:26;99110.91;;;20.36;61.05
16664;BME280;8445;51.270;9.434;2023-07-30T11:11:55;99115.16;;;20.27;61.02
16664;BME280;8445;51.270;9.434;2023-07-30T11:14:25;99121.66;;;20.26;61.08
16664;BME280;8445;51.270;9.434;2023-07-30T11:16:59;99114.97;;;20.38;60.84
16664;BME280;8445;51.270;9.434;2023-07-30T11:19:26;99107.75;;;20.54;60.74
16664;BME280;8445;51.270;9.434;2023-07-30T11:21:55;99113.50;;;20.73;60.28
16664;BME280;8445;51.270;9.434;2023-07-30T11:24:23;99107.34;;;20.98;59.82
16664;BME280;8445;51.270;9.434;2023-07-30T11:27:00;99112.03;;;21.59;58.79
16664;BME280;8445;51.270;9.434;2023-07-30T11:29:27;99114.13;;;22.82;56.34
16664;BME280;8445;51.270;9.434;2023-07-30T11:31:57;99110.00;;;23.73;54.95
16664;BME280;8445;51.270;9.434;2023-07-30T11:34:26;99114.88;;;24.05;54.81
16664;BME280;8445;51.270;9.434;2023-07-30T11:36:54;99116.97;;;24.37;54.88
16664;BME280;8445;51.270;9.434;2023-07-30T11:39:21;99113.84;;;24.49;54.74
16664;BME280;8445;51.270;9.434;2023-07-30T11:41:49;99116.56;;;24.49;54.94
16664;BME280;8445;51.270;9.434;2023-07-30T11:44:39;99107.72;;;24.38;54.95
16664;BME280;8445;51.270;9.434;2023-07-30T11:47:06;99111.97;;;24.21;55.67
16664;BME280;8445;51.270;9.434;2023-07-30T11:49:33;99114.44;;;23.93;56.09
16664;BME280;8445;51.270;9.434;2023-07-30T11:52:17;99123.44;;;23.59;56.29
16664;BME280;8445;51.270;9.434;2023-07-30T11:54:42;99126.75;;;23.51;56.23
16664;BME280;8445;51.270;9.434;2023-07-30T11:57:08;99121.16;;;23.72;55.62
16664;BME280;8445;51.270;9.434;2023-07-30T11:59:35;99112.34;;;24.38;54.02
16664;BME280;8445;51.270;9.434;2023-07-30T12:02:02;99114.34;;;25.31;52.22
16664;BME280;8445;51.270;9.434;2023-07-30T12:04:43;99126.47;;;25.90;51.45
16664;BME280;8445;51.270;9.434;2023-07-30T12:07:10;99117.34;;;26.55;50.29
16664;BME280;8445;51.270;9.434;2023-07-30T12:09:36;99120.34;;;27.31;49.55
16664;BME280;8445;51.270;9.434;2023-07-30T12:12:04;99113.72;;;27.99;48.37
16664;BME280;8445;51.270;9.434;2023-07-30T12:14:45;99114.47;;;28.22;48.08
16664;BME280;8445;51.270;9.434;2023-07-30T12:17:17;99114.19;;;27.92;49.11
16664;BME280;8445;51.270;9.434;2023-07-30T12:19:43;99120.06;;;27.55;49.32
16664;BME280;8445;51.270;9.434;2023-07-30T12:22:09;99116.69;;;27.35;49.59
16664;BME280;8445;51.270;9.434;2023-07-30T12:24:35;99107.94;;;27.25;49.38
16664;BME280;8445;51.270;9.434;2023-07-30T12:27:01;99115.88;;;27.57;49.03
16664;BME280;8445;51.270;9.434;2023-07-30T12:29:28;99113.97;;;28.51;46.99
16664;BME280;8445;51.270;9.434;2023-07-30T12:31:54;99110.69;;;28.89;45.91
16664;BME280;8445;51.270;9.434;2023-07-30T12:34:22;99114.25;;;29.15;45.66
16664;BME280;8445;51.270;9.434;2023-07-30T12:36:49;99112.25;;;29.76;44.53
16664;BME280;8445;51.270;9.434;2023-07-30T12:39:15;99117.59;;;29.81;44.12
16664;BME280;8445;51.270;9.434;2023-07-30T12:41:41;99107.56;;;29.94;43.11
16664;BME280;8445;51.270;9.434;2023-07-30T12:44:07;99106.00;;;29.67;43.76
16664;BME280;8445;51.270;9.434;2023-07-30T12:46:33;99109.09;;;29.31;43.94
16664;BME280;8445;51.270;9.434;2023-07-30T12:48:59;99113.91;;;29.42;43.51
16664;BME280;8445;51.270;9.434;2023-07-30T12:51:31;99108.75;;;29.24;43.17
16664;BME280;8445;51.270;9.434;2023-07-30T12:53:56;99117.13;;;28.93;42.29
16664;BME280;8445;51.270;9.434;2023-07-30T12:56:23;99117.31;;;28.88;42.12
16664;BME280;8445;51.270;9.434;2023-07-30T12:58:49;99094.56;;;28.96;42.02
16664;BME280;8445;51.270;9.434;2023-07-30T13:01:15;99107.44;;;28.95;41.77
16664;BME280;8445;51.270;9.434;2023-07-30T13:03:41;99110.28;;;28.24;43.69
16664;BME280;8445;51.270;9.434;2023-07-30T13:06:12;99117.34;;;27.63;45.07
16664;BME280;8445;51.270;9.434;2023-07-30T13:08:41;99106.69;;;27.53;45.05
16664;BME280;8445;51.270;9.434;2023-07-30T13:11:07;99115.28;;;27.38;45.22
16664;BME280;8445;51.270;9.434;2023-07-30T13:13:33;99109.78;;;27.38;45.17